Time;durP1;ratioP1;P1;durP2;ratioP2;P2;SDS_P1;SDS_P2;PMS_P1;PMS_P2;Temp;Humidity;BMP_temperature;BMP_pressure;BME280_temperature;BME280_humidity;BME280_pressure;Samples;Min_cycle;Max_cycle;Signal;HPM_P1;HPM_P2
2021/12/04 00:00:23;;;;;;;38.27;35.07;;;;;;;23.42;33.37;94459.50;4953704;28;103127;-55
2021/12/04 00:02:50;;;;;;;38.00;34.80;;;;;;;23.53;33.53;94470.59;4956973;28;102856;-55
2021/12/04 00:05:16;;;;;;;36.90;33.90;;;;;;;23.52;33.32;94474.34;4957802;28;102726;-55
2021/12/04 00:07:42;;;;;;;35.90;32.80;;;;;;;23.52;33.27;94473.56;4958825;28;103063;-55
2021/12/04 00:10:08;;;;;;;37.87;34.60;;;;;;;23.51;33.53;94478.09;4960825;28;102952;-55
2021/12/04 00:12:34;;;;;;;36.40;33.40;;;;;;;23.53;33.14;94467.13;4958258;28;102713;-55
2021/12/04 00:15:00;;;;;;;34.77;31.93;;;;;;;23.53;33.27;94469.81;4962164;28;103119;-55
2021/12/04 00:17:27;;;;;;;35.30;32.47;;;;;;;23.51;33.34;94486.09;4962655;28;104558;-55
2021/12/04 00:19:52;;;;;;;35.73;32.40;;;;;;;23.47;33.11;94482.53;4958206;28;102750;-56
2021/12/04 00:22:19;;;;;;;34.40;31.50;;;;;;;23.50;32.93;94478.44;4955684;28;103488;-56
2021/12/04 00:24:45;;;;;;;33.17;30.47;;;;;;;23.49;33.12;94477.66;4962399;28;103074;-55
2021/12/04 00:27:10;;;;;;;35.13;32.03;;;;;;;23.49;33.48;94479.53;4961693;28;104298;-55
2021/12/04 00:29:36;;;;;;;36.30;33.30;;;;;;;23.48;33.09;94473.41;4957855;28;102841;-55
2021/12/04 00:32:11;;;;;;;33.57;30.87;;;;;;;23.44;33.14;94477.84;4945070;28;103165;-55
2021/12/04 00:34:42;;;;;;;34.37;31.47;;;;;;;23.46;32.95;94478.28;4955546;28;103458;-55
2021/12/04 00:50:35;;;;;;;32.40;29.70;;;;;;;23.47;33.09;94484.41;4962370;28;103287;-55
2021/12/04 00:53:01;;;;;;;32.43;29.80;;;;;;;23.47;32.82;94481.75;4948083;28;102698;-55
2021/12/04 00:55:26;;;;;;;32.37;29.63;;;;;;;23.46;33.06;94480.19;4955080;28;104560;-55
2021/12/04 00:57:52;;;;;;;32.80;30.10;;;;;;;23.46;32.76;94472.19;4961648;28;102783;-55
2021/12/04 01:00:18;;;;;;;32.40;29.67;;;;;;;23.46;33.27;94467.63;4960659;28;103141;-55
2021/12/04 01:02:44;;;;;;;31.60;29.07;;;;;;;23.34;32.93;94438.97;4961828;28;102899;-55
2021/12/04 01:05:10;;;;;;;32.50;29.70;;;;;;;23.44;33.19;94464.50;4962316;28;103033;-55
2021/12/04 01:07:35;;;;;;;31.13;28.70;;;;;;;23.45;32.66;94462.63;4955293;28;103465;-55
2021/12/04 01:10:03;;;;;;;30.93;28.30;;;;;;;23.44;32.72;94459.16;4960368;28;102757;-55
2021/12/04 01:12:29;;;;;;;31.27;28.67;;;;;;;23.44;33.21;94453.84;4944336;28;102872;-55
2021/12/04 01:14:55;;;;;;;29.67;27.27;;;;;;;23.43;33.04;94444.28;4961023;28;102683;-55
2021/12/04 01:17:20;;;;;;;29.50;27.00;;;;;;;23.44;32.59;94431.72;4955556;28;103141;-55
2021/12/04 01:19:46;;;;;;;29.60;27.30;;;;;;;23.28;32.93;94402.19;4962291;28;102847;-55
2021/12/04 01:22:11;;;;;;;30.77;28.17;;;;;;;23.42;33.03;94430.16;4941872;28;102797;-55
2021/12/04 01:24:37;;;;;;;30.70;28.10;;;;;;;23.43;32.77;94417.63;4961528;28;102734;-55
2021/12/04 01:27:03;;;;;;;30.33;27.93;;;;;;;23.43;32.62;94425.63;4960483;28;102901;-55
2021/12/04 01:29:28;;;;;;;31.13;28.63;;;;;;;23.35;32.85;94405.13;4956970;28;103379;-55
2021/12/04 01:31:54;;;;;;;30.90;28.50;;;;;;;23.27;32.59;94401.41;4961779;28;103164;-55
2021/12/04 01:34:19;;;;;;;28.70;26.27;;;;;;;23.42;32.76;94413.41;4959851;28;103224;-55
2021/12/04 01:36:45;;;;;;;29.07;26.67;;;;;;;23.38;32.48;94410.59;4961433;28;103005;-55
2021/12/04 01:39:11;;;;;;;29.23;26.73;;;;;;;23.41;33.11;94409.94;4956630;28;102698;-55
2021/12/04 01:41:37;;;;;;;28.13;25.93;;;;;;;23.42;32.87;94416.06;4960976;28;103379;-55
2021/12/04 01:44:04;;;;;;;29.03;26.63;;;;;;;23.40;32.77;94419.06;4961131;28;103189;-55
2021/12/04 01:46:31;;;;;;;28.33;26.03;;;;;;;23.40;32.97;94413.72;4959465;28;102651;-55
2021/12/04 01:48:56;;;;;;;27.43;25.20;;;;;;;23.40;32.82;94420.94;4960975;28;103168;-55
2021/12/04 01:51:22;;;;;;;27.70;25.50;;;;;;;23.37;32.54;94417.03;4957485;28;102742;-55
2021/12/04 01:53:48;;;;;;;27.27;25.00;;;;;;;23.30;32.59;94402.63;4961276;28;102878;-55
2021/12/04 01:56:15;;;;;;;25.40;23.40;;;;;;;23.39;32.81;94408.72;4961783;28;102647;-55
2021/12/04 01:58:42;;;;;;;26.13;24.07;;;;;;;23.37;32.97;94417.03;4961144;28;103159;-55
2021/12/04 02:01:08;;;;;;;24.83;22.83;;;;;;;23.24;32.43;94407.38;4937467;28;104896;-55
2021/12/04 02:03:34;;;;;;;25.60;23.60;;;;;;;23.38;32.66;94429.25;4961466;28;102701;-55
2021/12/04 02:06:00;;;;;;;23.50;21.70;;;;;;;23.39;32.42;94432.72;4961589;28;102770;-55
2021/12/04 02:08:25;;;;;;;23.90;22.00;;;;;;;23.23;32.58;94397.03;4960490;28;102845;-55
2021/12/04 02:10:54;;;;;;;24.13;22.23;;;;;;;23.38;32.64;94428.47;4961142;28;102713;-55
2021/12/04 02:13:19;;;;;;;24.47;22.53;;;;;;;23.39;32.36;94440.69;4955467;28;103461;-55
2021/12/04 02:15:46;;;;;;;22.27;20.47;;;;;;;23.37;32.39;94437.59;4955104;28;104588;-55
2021/12/04 02:18:13;;;;;;;23.07;21.20;;;;;;;23.37;32.54;94432.25;4952938;28;103111;-55
2021/12/04 02:20:39;;;;;;;21.80;20.10;;;;;;;23.34;32.79;94427.53;4953242;28;102813;-55
2021/12/04 02:23:07;;;;;;;22.00;20.30;;;;;;;23.36;32.72;94428.81;4935853;28;103078;-55
2021/12/04 02:25:34;;;;;;;21.43;19.73;;;;;;;23.30;32.55;94403.41;4960519;28;103293;-55
2021/12/04 02:28:02;;;;;;;20.90;19.20;;;;;;;23.33;32.58;94405.44;4960651;28;102841;-55
2021/12/04 02:30:32;;;;;;;20.67;19.07;;;;;;;23.32;32.31;94397.75;4960883;28;102945;-56
2021/12/04 02:32:58;;;;;;;19.87;18.30;;;;;;;23.35;32.15;94411.25;4959197;28;102666;-55
2021/12/04 02:35:25;;;;;;;19.77;18.17;;;;;;;23.35;32.63;94432.56;4955025;28;102664;-55
2021/12/04 02:37:51;;;;;;;21.33;19.60;;;;;;;23.30;32.15;94423.97;4960306;28;102879;-55
2021/12/04 02:40:20;;;;;;;20.40;18.80;;;;;;;23.34;32.72;94427.53;4961410;28;102862;-55
2021/12/04 02:42:46;;;;;;;19.10;17.70;;;;;;;23.19;32.56;94404.91;4960325;28;103336;-55
2021/12/04 02:45:12;;;;;;;19.57;17.97;;;;;;;23.34;32.54;94422.22;4955701;28;103058;-55
2021/12/04 02:47:39;;;;;;;18.47;16.97;;;;;;;23.28;32.46;94418.19;4959566;28;102714;-55
2021/12/04 02:50:07;;;;;;;17.97;16.67;;;;;;;23.23;32.39;94410.38;4961257;28;102903;-55
2021/12/04 02:52:33;;;;;;;18.33;16.90;;;;;;;23.33;32.30;94424.09;4959234;28;102703;-55
2021/12/04 02:54:59;;;;;;;17.53;16.13;;;;;;;23.28;32.25;94416.28;4959945;28;103341;-56
2021/12/04 02:57:26;;;;;;;17.80;16.30;;;;;;;23.34;32.11;94417.66;4947304;28;103729;-55
2021/12/04 02:59:53;;;;;;;17.67;16.17;;;;;;;23.34;32.63;94407.00;4961509;28;103644;-55
2021/12/04 03:02:23;;;;;;;16.90;15.60;;;;;;;23.33;31.99;94409.97;4945695;28;103316;-55
2021/12/04 03:04:55;;;;;;;17.47;16.07;;;;;;;23.31;32.10;94412.19;4959981;28;103159;-52
2021/12/04 03:07:22;;;;;;;17.10;15.80;;;;;;;23.30;31.97;94395.41;4952609;28;103708;-52
2021/12/04 03:09:48;;;;;;;16.77;15.47;;;;;;;23.32;32.09;94381.78;4960134;28;102781;-52
2021/12/04 03:12:15;;;;;;;16.40;14.77;;;;;;;23.44;31.80;94394.41;4959803;28;102889;-52
2021/12/04 03:14:41;;;;;;;14.67;13.43;;;;;;;23.47;31.57;94401.75;4958358;28;103239;-52
2021/12/04 03:17:07;;;;;;;15.37;14.10;;;;;;;23.40;31.66;94388.94;4951728;28;103287;-52
2021/12/04 03:19:34;;;;;;;15.17;14.07;;;;;;;23.51;31.77;94411.44;4954606;28;102862;-52
2021/12/04 03:22:02;;;;;;;15.03;13.77;;;;;;;23.50;31.35;94404.56;4955415;28;103672;-52
2021/12/04 03:24:28;;;;;;;15.00;13.80;;;;;;;23.54;31.45;94410.81;4956818;28;102845;-52
2021/12/04 03:26:55;;;;;;;13.90;12.90;;;;;;;23.55;31.32;94406.28;4957656;28;104084;-52
2021/12/04 03:29:23;;;;;;;13.87;12.80;;;;;;;23.47;31.61;94394.53;4952070;28;103930;-52
2021/12/04 03:40:37;;;;;;;13.40;12.40;;;;;;;23.39;31.25;94390.84;4950065;28;103434;-52
2021/12/04 03:42:44;;;;;;;12.80;11.90;;;;;;;23.43;31.68;94388.28;4941133;28;102822;-52
2021/12/04 03:45:11;;;;;;;12.73;11.80;;;;;;;23.59;31.37;94423.97;4952622;28;103211;-52
2021/12/04 03:47:41;;;;;;;12.20;11.30;;;;;;;23.58;31.47;94422.44;4955028;28;103925;-52
2021/12/04 03:50:08;;;;;;;11.87;10.97;;;;;;;23.59;31.48;94423.97;4959048;28;103544;-52
2021/12/04 03:52:33;;;;;;;11.73;10.83;;;;;;;23.59;31.08;94415.97;4953737;28;102823;-52
2021/12/04 03:54:59;;;;;;;12.60;11.60;;;;;;;23.51;31.68;94403.44;4958052;28;102939;-52
2021/12/04 03:57:24;;;;;;;11.90;10.90;;;;;;;23.61;31.21;94421.00;4941160;28;102770;-52
2021/12/04 03:59:50;;;;;;;11.30;10.40;;;;;;;23.61;31.07;94421.00;4959153;28;103319;-52
2021/12/04 04:02:17;;;;;;;11.53;10.63;;;;;;;23.62;31.37;94423.34;4952484;28;103533;-52
2021/12/04 04:04:44;;;;;;;11.13;10.27;;;;;;;23.63;31.28;94424.88;4956343;28;102711;-52
2021/12/04 04:07:10;;;;;;;10.93;10.00;;;;;;;23.64;31.28;94423.78;4951978;28;103037;-52
2021/12/04 04:09:37;;;;;;;10.73;9.93;;;;;;;23.61;31.42;94427.09;4949326;28;103200;-52
2021/12/04 04:12:03;;;;;;;10.47;9.67;;;;;;;23.65;31.51;94433.34;4954791;28;102736;-52
2021/12/04 04:14:29;;;;;;;11.07;10.27;;;;;;;23.65;31.23;94433.34;4954346;28;103390;-52
2021/12/04 04:16:56;;;;;;;10.47;9.57;;;;;;;23.64;31.13;94437.13;4954423;28;102773;-52
2021/12/04 04:19:23;;;;;;;10.73;9.93;;;;;;;23.64;30.93;94436.34;4958186;28;102700;-52
2021/12/04 04:21:53;;;;;;;9.80;9.10;;;;;;;23.63;31.40;94438.22;4958214;28;104383;-52
2021/12/04 04:24:19;;;;;;;9.93;9.23;;;;;;;23.50;31.29;94423.22;4948455;28;103180;-52
2021/12/04 04:26:45;;;;;;;9.90;9.10;;;;;;;23.58;31.08;94429.66;4943206;28;103016;-52
2021/12/04 04:29:12;;;;;;;9.60;8.90;;;;;;;23.64;31.35;94445.13;4959555;28;103285;-52
2021/12/04 04:31:45;;;;;;;8.77;8.17;;;;;;;23.65;31.34;94437.91;4949898;28;102727;-52
2021/12/04 04:34:12;;;;;;;10.03;9.33;;;;;;;23.64;31.37;94441.69;4959349;28;103754;-52
2021/12/04 04:58:23;;;;;;;9.60;8.80;;;;;;;23.67;31.08;94468.47;4953458;28;103568;-52
2021/12/04 05:11:39;;;;;;;8.87;8.17;;;;;;;23.71;30.83;94447.28;4950384;28;102748;-52
2021/12/04 05:14:05;;;;;;;7.50;6.97;;;;;;;23.70;30.74;94448.41;4947908;28;103701;-52
2021/12/04 05:16:43;;;;;;;8.30;7.70;;;;;;;23.72;30.81;94442.75;4951808;28;104463;-52
2021/12/04 05:19:25;;;;;;;9.23;8.60;;;;;;;23.72;31.07;94448.06;4951737;28;102675;-52
2021/12/04 05:21:51;;;;;;;7.90;7.30;;;;;;;23.72;30.82;94450.75;4959810;28;102918;-52
2021/12/04 05:24:16;;;;;;;8.60;8.00;;;;;;;23.65;30.79;94425.34;4944951;28;103212;-52
2021/12/04 05:26:42;;;;;;;7.97;7.37;;;;;;;23.32;30.69;94373.78;4953103;28;102877;-52
2021/12/04 05:29:07;;;;;;;8.63;7.93;;;;;;;23.67;30.50;94431.13;4945140;28;103031;-52
2021/12/04 05:31:33;;;;;;;8.10;7.50;;;;;;;23.69;30.95;94431.63;4936921;28;103074;-52
2021/12/04 05:33:58;;;;;;;8.90;8.20;;;;;;;23.73;30.59;94430.97;4959356;28;103171;-52
2021/12/04 05:36:24;;;;;;;8.03;7.43;;;;;;;23.70;30.92;94433.19;4959352;28;103341;-52
2021/12/04 05:38:49;;;;;;;7.87;7.27;;;;;;;23.71;30.82;94444.63;4942577;28;102738;-52
2021/12/04 05:41:16;;;;;;;8.10;7.50;;;;;;;23.73;30.80;94444.31;4937663;28;102843;-52
2021/12/04 05:43:42;;;;;;;8.37;7.70;;;;;;;23.73;30.42;94444.31;4954423;28;104589;-52
2021/12/04 05:46:19;;;;;;;7.57;6.97;;;;;;;23.72;30.39;94442.75;4961501;28;102840;-52
2021/12/04 05:48:53;;;;;;;7.90;7.30;;;;;;;23.73;30.81;94444.31;4959320;28;102666;-52
2021/12/04 05:56:23;;;;;;;8.07;7.47;;;;;;;23.71;30.13;94447.28;4951594;28;102719;-52
2021/12/04 05:58:49;;;;;;;7.47;6.87;;;;;;;23.73;30.83;94452.31;4959948;28;102853;-52
2021/12/04 06:01:16;;;;;;;8.10;7.50;;;;;;;23.72;30.33;94448.06;4959941;28;103801;-52
2021/12/04 06:03:42;;;;;;;7.57;7.03;;;;;;;23.58;30.27;94426.97;4955611;28;102697;-52
2021/12/04 06:06:08;;;;;;;7.40;6.80;;;;;;;23.72;30.82;94442.75;4947654;28;103251;-52
2021/12/04 06:08:34;;;;;;;7.70;7.10;;;;;;;23.70;30.31;94446.50;4941772;28;102779;-52
2021/12/04 06:11:00;;;;;;;7.40;6.83;;;;;;;23.70;30.18;94457.19;4959149;28;103248;-52
2021/12/04 06:13:26;;;;;;;8.20;7.60;;;;;;;23.65;30.28;94464.56;4953310;28;102768;-52
2021/12/04 06:15:52;;;;;;;7.60;7.10;;;;;;;23.72;30.26;94466.75;4936969;28;102800;-52
2021/12/04 06:18:20;;;;;;;8.10;7.40;;;;;;;23.70;30.43;94473.19;4956654;28;102782;-52
2021/12/04 06:23:32;;;;;;;7.87;7.27;;;;;;;23.60;30.85;94454.09;4956347;28;102981;-53
2021/12/04 06:25:58;;;;;;;7.40;6.90;;;;;;;23.72;30.36;94470.19;4946722;28;103757;-52
2021/12/04 06:28:24;;;;;;;7.93;7.33;;;;;;;23.71;30.58;94465.97;4960010;28;103074;-52
2021/12/04 06:30:51;;;;;;;7.90;7.30;;;;;;;23.70;30.78;94469.75;4944152;28;102782;-52
2021/12/04 06:33:17;;;;;;;7.17;6.67;;;;;;;23.71;30.29;94471.31;4940892;28;104084;-52
2021/12/04 06:35:43;;;;;;;7.93;7.33;;;;;;;23.70;30.39;94485.75;4937064;28;103308;-52
2021/12/04 06:38:11;;;;;;;7.20;6.70;;;;;;;23.72;30.74;94490.75;4940997;28;102683;-52
2021/12/04 06:40:37;;;;;;;7.57;7.07;;;;;;;23.70;30.74;94486.53;4950990;28;103357;-52
2021/12/04 06:43:04;;;;;;;7.37;6.87;;;;;;;23.70;30.66;94491.84;4959570;28;102967;-53
2021/12/04 06:45:32;;;;;;;8.00;7.40;;;;;;;23.71;30.66;94495.31;4959778;28;103125;-53
2021/12/04 06:48:02;;;;;;;7.63;7.03;;;;;;;23.72;30.36;94498.75;4954039;28;102675;-52
2021/12/04 06:50:41;;;;;;;7.43;6.83;;;;;;;23.71;30.76;94497.97;4957226;28;102706;-52
2021/12/04 06:53:29;;;;;;;7.50;6.90;;;;;;;23.71;30.71;94495.31;4960604;28;102759;-53
2021/12/04 06:55:58;;;;;;;8.00;7.40;;;;;;;23.72;30.64;94504.09;4957694;28;103045;-52
2021/12/04 06:58:25;;;;;;;8.03;7.43;;;;;;;23.57;30.75;94471.53;4953943;28;103781;-52
2021/12/04 07:00:51;;;;;;;7.93;7.40;;;;;;;23.71;30.63;94505.97;4958033;28;102737;-52
2021/12/04 07:03:18;;;;;;;7.53;6.93;;;;;;;23.70;30.25;94502.53;4959025;28;103490;-53
2021/12/04 07:05:44;;;;;;;8.00;7.40;;;;;;;23.65;30.18;94492.03;4957207;28;102752;-53
2021/12/04 07:08:11;;;;;;;8.10;7.50;;;;;;;23.66;30.62;94488.25;4941674;28;102886;-52
2021/12/04 07:10:37;;;;;;;7.50;6.90;;;;;;;23.72;30.42;94506.75;4949494;28;103364;-53
2021/12/04 07:13:03;;;;;;;7.33;6.83;;;;;;;23.56;30.44;94483.28;4939871;28;102793;-52
2021/12/04 07:15:31;;;;;;;8.50;7.90;;;;;;;23.73;30.70;94518.97;4940208;28;102789;-53
2021/12/04 07:18:00;;;;;;;7.70;7.10;;;;;;;23.56;30.64;94503.81;4947051;28;102738;-53
2021/12/04 07:20:27;;;;;;;9.50;8.70;;;;;;;23.69;30.99;94519.63;4954893;28;103243;-53
2021/12/04 07:22:52;;;;;;;7.67;7.07;;;;;;;23.63;31.15;94528.13;4954518;28;104322;-53
2021/12/04 07:25:18;;;;;;;8.23;7.63;;;;;;;23.47;31.27;94503.84;4950350;28;102798;-53
2021/12/04 07:27:45;;;;;;;8.07;7.47;;;;;;;23.50;31.14;94511.19;4960180;28;102932;-53
2021/12/04 07:30:11;;;;;;;8.60;7.93;;;;;;;23.58;31.24;94523.75;4962943;28;102766;-53
2021/12/04 07:32:37;;;;;;;7.10;6.60;;;;;;;23.58;30.75;94521.09;4955220;28;103603;-53
2021/12/04 07:35:04;;;;;;;8.17;7.53;;;;;;;23.59;31.33;94528.00;4945044;28;103554;-54
2021/12/04 07:37:30;;;;;;;7.80;7.10;;;;;;;23.46;31.10;94506.84;4948274;28;102808;-54
2021/12/04 07:39:55;;;;;;;8.50;7.60;;;;;;;23.54;30.92;94517.47;4956538;28;102721;-54
2021/12/04 07:42:21;;;;;;;7.07;6.47;;;;;;;23.53;31.63;94510.59;4954346;28;103444;-54
2021/12/04 07:44:47;;;;;;;7.50;6.90;;;;;;;23.52;31.44;94502.91;4960686;28;102966;-54
2021/12/04 07:47:14;;;;;;;7.37;6.87;;;;;;;23.52;31.22;94501.03;4955819;28;103411;-54
2021/12/04 07:49:40;;;;;;;7.03;6.53;;;;;;;23.49;31.10;94490.97;4948044;28;102776;-54
2021/12/04 07:52:07;;;;;;;6.57;6.07;;;;;;;23.50;31.54;94484.53;4949298;28;102831;-54
2021/12/04 07:54:34;;;;;;;6.97;6.37;;;;;;;23.50;31.40;94471.22;4939293;28;103029;-55
2021/12/04 07:57:01;;;;;;;6.17;5.77;;;;;;;23.50;31.67;94471.22;4954883;28;102909;-55
2021/12/04 07:59:28;;;;;;;7.13;6.53;;;;;;;23.51;31.71;94472.78;4978214;28;102643;-54
2021/12/04 08:01:55;;;;;;;7.43;6.73;;;;;;;23.31;31.87;94466.28;4964077;28;103323;-54
2021/12/04 08:04:20;;;;;;;7.73;6.30;;;;;;;23.33;31.74;94463.28;4954250;28;102840;-54
2021/12/04 08:06:46;;;;;;;9.30;5.90;;;;;;;23.37;31.35;94461.56;4960510;28;103098;-54
2021/12/04 08:09:11;;;;;;;7.07;6.37;;;;;;;23.34;31.79;94452.31;4957985;28;103094;-55
2021/12/04 08:11:37;;;;;;;7.13;6.30;;;;;;;23.41;31.66;94454.50;4942529;28;103411;-55
2021/12/04 08:14:03;;;;;;;8.03;7.23;;;;;;;23.41;31.38;94449.16;4957402;28;102951;-54
2021/12/04 08:16:32;;;;;;;10.40;7.50;;;;;;;23.43;31.20;94457.63;4952592;28;103610;-54
2021/12/04 08:18:58;;;;;;;11.47;7.30;;;;;;;23.43;31.30;94457.63;4959036;28;102628;-54
2021/12/04 08:21:23;;;;;;;8.50;7.80;;;;;;;23.45;31.59;94457.28;4958907;28;102709;-54
2021/12/04 08:23:49;;;;;;;9.00;8.20;;;;;;;23.40;31.92;94452.94;4960309;28;103151;-54
2021/12/04 08:26:15;;;;;;;8.73;8.00;;;;;;;23.46;31.81;94459.63;4934064;28;103915;-55
2021/12/04 08:28:41;;;;;;;8.97;8.17;;;;;;;23.47;31.61;94469.19;4939225;28;102924;-55
2021/12/04 08:31:07;;;;;;;9.13;8.43;;;;;;;23.48;32.06;94469.97;4954407;28;102941;-55
2021/12/04 08:33:32;;;;;;;11.47;10.03;;;;;;;23.48;32.07;94461.97;4960229;28;103422;-54
2021/12/04 08:35:58;;;;;;;13.33;11.40;;;;;;;23.48;31.66;94465.41;4961034;28;102860;-54
2021/12/04 08:38:24;;;;;;;15.80;12.20;;;;;;;23.44;32.40;94458.41;4956667;28;103442;-55
2021/12/04 08:40:50;;;;;;;13.10;11.77;;;;;;;23.49;32.04;94463.53;4961099;28;102863;-55
2021/12/04 08:43:17;;;;;;;14.70;13.20;;;;;;;23.47;32.02;94455.06;4955785;28;103270;-55
2021/12/04 08:45:43;;;;;;;14.07;12.67;;;;;;;23.53;31.95;94457.25;4944387;28;102921;-54
2021/12/04 08:48:09;;;;;;;15.80;14.10;;;;;;;23.51;32.22;94451.44;4947190;28;105851;-55
2021/12/04 08:50:36;;;;;;;15.17;13.50;;;;;;;23.50;31.82;94439.22;4978299;28;102928;-54
2021/12/04 08:53:04;;;;;;;15.63;14.03;;;;;;;23.42;32.18;94429.38;4982736;28;103409;-54
2021/12/04 08:55:31;;;;;;;18.60;16.83;;;;;;;23.51;31.93;94438.09;4944495;28;103011;-55
2021/12/04 08:57:58;;;;;;;17.60;15.80;;;;;;;23.53;32.41;94443.94;4944838;28;103039;-55
2021/12/04 09:00:28;;;;;;;18.87;17.17;;;;;;;23.53;32.20;94430.59;4946384;28;103502;-54
2021/12/04 09:02:55;;;;;;;19.57;17.80;;;;;;;23.54;31.85;94426.03;4948428;28;102741;-54
2021/12/04 09:05:21;;;;;;;20.00;18.20;;;;;;;23.55;31.88;94432.94;4949037;28;102801;-54
2021/12/04 09:07:48;;;;;;;20.17;18.37;;;;;;;23.54;32.33;94432.16;4952655;28;102776;-54
2021/12/04 09:10:16;;;;;;;19.57;17.83;;;;;;;23.53;31.83;94429.81;4951574;28;102838;-54
2021/12/04 09:12:43;;;;;;;20.23;18.43;;;;;;;23.53;31.95;94429.81;4960497;28;103380;-54
2021/12/04 09:15:13;;;;;;;22.17;20.00;;;;;;;23.54;32.10;94434.03;4958148;28;103211;-54
2021/12/04 09:17:39;;;;;;;20.93;19.13;;;;;;;23.54;32.23;94429.47;4950394;28;102753;-54
2021/12/04 09:20:07;;;;;;;21.40;19.60;;;;;;;23.53;31.86;94429.81;4951601;28;103304;-54
2021/12/04 09:22:35;;;;;;;22.17;20.27;;;;;;;23.50;32.42;94420.53;4957071;28;102613;-53
2021/12/04 09:25:10;;;;;;;22.53;20.67;;;;;;;23.51;31.97;94427.44;4975619;28;102712;-54
2021/12/04 09:59:13;;;;;;;25.90;23.77;;;;;;;23.49;32.14;94440.31;4961743;28;103004;-54
2021/12/04 10:33:19;;;;;;;18.80;17.00;;;;;;;23.53;32.03;94422.59;4941588;28;103094;-54
2021/12/04 10:35:47;;;;;;;17.73;16.13;;;;;;;23.54;32.27;94418.03;4957069;28;103222;-54
2021/12/04 10:38:21;;;;;;;17.40;15.80;;;;;;;23.52;32.25;94402.38;4944191;28;103653;-55
2021/12/04 10:40:49;;;;;;;19.20;16.73;;;;;;;23.44;32.41;94389.84;4959484;28;102946;-54
2021/12/04 10:43:23;;;;;;;22.23;17.27;;;;;;;23.52;32.80;94402.38;4953997;28;102822;-54
2021/12/04 10:45:54;;;;;;;19.50;17.50;;;;;;;23.50;32.29;94415.22;4973340;28;102832;-55
2021/12/04 10:48:24;;;;;;;16.27;14.67;;;;;;;23.38;32.30;94413.25;4962273;28;102799;-54
2021/12/04 10:51:19;;;;;;;16.60;14.90;;;;;;;23.34;32.09;94412.31;4934539;28;102875;-55
2021/12/04 10:53:49;;;;;;;13.93;11.70;;;;;;;23.26;37.63;94391.06;4940177;28;103032;-52
2021/12/04 10:56:29;;;;;;;12.33;11.13;;;;;;;23.47;30.87;94412.41;4940720;28;104382;-53
2021/12/04 11:04:30;;;;;;;11.87;10.70;;;;;;;23.86;35.88;94420.03;4944266;28;103217;-51
2021/12/04 11:35:13;;;;;;;9.60;8.70;;;;;;;23.50;32.74;94395.78;4940983;28;102876;-52
2021/12/04 11:40:37;;;;;;;8.33;7.63;;;;;;;23.45;31.98;94404.75;4956787;28;102701;-52
2021/12/04 11:43:07;;;;;;;7.97;7.27;;;;;;;23.41;32.57;94395.84;4947299;28;103013;-52
2021/12/04 11:45:50;;;;;;;8.60;7.90;;;;;;;23.41;32.03;94398.50;4917991;28;103739;-52
2021/12/04 11:48:26;;;;;;;7.67;6.93;;;;;;;23.22;31.86;94372.28;4931583;28;103192;-52
2021/12/04 11:50:52;;;;;;;7.73;7.03;;;;;;;23.43;31.99;94398.97;4943169;28;102659;-51
2021/12/04 11:53:20;;;;;;;8.60;7.23;;;;;;;23.46;31.65;94392.97;4940301;28;102861;-51
2021/12/04 11:55:47;;;;;;;7.67;7.07;;;;;;;23.48;31.27;94398.75;4938834;28;103399;-52
2021/12/04 11:58:28;;;;;;;7.00;6.40;;;;;;;23.14;31.68;94337.66;4957324;28;102814;-52
2021/12/04 12:00:58;;;;;;;7.20;6.60;;;;;;;23.43;31.82;94398.97;4954544;28;102746;-52
2021/12/04 12:03:30;;;;;;;7.67;6.97;;;;;;;23.47;31.82;94407.88;4957576;28;102797;-51
2021/12/04 12:06:10;;;;;;;7.77;7.07;;;;;;;23.56;31.51;94410.50;4955335;28;102964;-51
2021/12/04 12:08:42;;;;;;;9.07;8.03;;;;;;;23.46;32.45;94408.19;4953502;28;102790;-51
2021/12/04 12:11:27;;;;;;;8.80;7.57;;;;;;;23.42;32.89;94406.19;4962903;28;103295;-51
2021/12/04 12:14:06;;;;;;;7.13;6.53;;;;;;;23.48;32.46;94406.75;4952855;28;103322;-52
2021/12/04 12:16:39;;;;;;;7.63;7.03;;;;;;;23.44;32.34;94387.19;4935098;28;103380;-52
2021/12/04 12:19:09;;;;;;;7.10;6.40;;;;;;;23.55;32.13;94396.38;4952213;28;102752;-51
2021/12/04 12:22:07;;;;;;;7.60;6.90;;;;;;;23.47;32.38;94372.44;4957879;28;102610;-51
2021/12/04 12:33:17;;;;;;;13.17;12.07;;;;;;;23.76;32.59;94403.63;4956626;28;103075;-53
2021/12/04 12:38:33;;;;;;;12.80;11.80;;;;;;;23.85;33.40;94405.16;4950969;28;102650;-53
2021/12/04 12:41:23;;;;;;;13.00;11.83;;;;;;;23.80;32.83;94402.66;4957400;28;103422;-53
2021/12/04 12:44:12;;;;;;;12.57;11.47;;;;;;;23.88;33.04;94401.03;4962112;28;102711;-53
2021/12/04 12:46:52;;;;;;;12.93;11.70;;;;;;;23.79;33.02;94377.09;4961719;28;103024;-53
2021/12/04 12:49:22;;;;;;;11.97;10.53;;;;;;;23.90;33.06;94396.16;4961047;28;103215;-53
2021/12/04 12:52:05;;;;;;;11.43;10.50;;;;;;;23.91;33.21;94393.16;4957476;28;102735;-53
2021/12/04 12:54:43;;;;;;;11.87;10.23;;;;;;;23.92;32.84;94393.94;4962048;28;103407;-53
2021/12/04 12:57:29;;;;;;;11.80;10.80;;;;;;;23.92;33.18;94397.38;4952610;28;102867;-53
2021/12/04 13:11:45;;;;;;;13.40;12.23;;;;;;;23.96;33.11;94416.19;4962711;28;103212;-53
2021/12/04 13:14:21;;;;;;;12.33;11.23;;;;;;;23.97;33.20;94420.41;4958897;28;103219;-53
2021/12/04 13:16:50;;;;;;;11.70;10.70;;;;;;;23.98;33.68;94414.75;4941965;28;103259;-53
2021/12/04 13:19:18;;;;;;;10.73;9.93;;;;;;;23.99;33.52;94418.97;4942339;28;103022;-53
2021/12/04 13:21:49;;;;;;;11.60;10.53;;;;;;;24.00;33.77;94422.44;4929036;28;105289;-53
2021/12/04 13:24:16;;;;;;;12.33;11.23;;;;;;;23.99;33.64;94418.97;4954596;28;102821;-53
2021/12/04 13:26:47;;;;;;;11.37;10.47;;;;;;;24.00;33.84;94415.19;4941432;28;103545;-53
2021/12/04 13:29:16;;;;;;;11.00;10.13;;;;;;;24.01;33.47;94419.44;4942070;28;102672;-53
2021/12/04 13:31:41;;;;;;;11.07;10.17;;;;;;;23.93;33.60;94406.16;4941994;28;102681;-53
2021/12/04 13:34:10;;;;;;;11.20;10.30;;;;;;;24.02;33.85;94414.91;4942796;28;102695;-54
2021/12/04 13:36:37;;;;;;;11.70;10.60;;;;;;;23.95;33.71;94406.63;4926012;28;104540;-53
2021/12/04 13:39:08;;;;;;;10.80;9.90;;;;;;;24.03;33.56;94418.34;4961119;28;104781;-53
2021/12/04 13:41:35;;;;;;;10.93;10.10;;;;;;;23.93;33.85;94396.28;4969487;28;103376;-53
2021/12/04 13:44:05;;;;;;;12.73;11.63;;;;;;;24.03;34.01;94405.00;4975698;28;103086;-53
2021/12/04 13:46:49;;;;;;;12.47;11.50;;;;;;;24.03;34.15;94400.44;4952490;28;102964;-53
2021/12/04 13:49:30;;;;;;;11.87;10.87;;;;;;;24.05;33.87;94400.91;4942008;28;105669;-54
2021/12/04 13:52:04;;;;;;;11.47;10.50;;;;;;;23.91;34.12;94376.38;4958825;28;102849;-54
2021/12/04 13:54:32;;;;;;;11.57;10.63;;;;;;;24.08;34.20;94405.56;4967236;28;103059;-53
2021/12/04 13:56:58;;;;;;;11.23;10.33;;;;;;;24.09;33.89;94401.78;4951942;28;102925;-53
2021/12/04 13:59:26;;;;;;;11.00;10.17;;;;;;;24.05;34.13;94392.88;4958455;28;102899;-53
2021/12/04 14:01:53;;;;;;;10.40;9.50;;;;;;;24.14;34.12;94393.59;4960960;28;103132;-53
2021/12/04 14:04:19;;;;;;;13.23;12.23;;;;;;;24.08;34.20;94392.22;4957144;28;103118;-55
2021/12/04 14:06:54;;;;;;;18.53;16.93;;;;;;;24.01;33.93;94389.28;4977626;28;102702;-54
2021/12/04 14:09:29;;;;;;;25.30;23.00;;;;;;;23.93;34.28;94395.50;4956060;28;103984;-55
2021/12/04 14:11:55;;;;;;;22.77;20.73;;;;;;;23.86;33.31;94398.69;4955935;28;102993;-54
2021/12/04 14:14:24;;;;;;;19.10;17.50;;;;;;;23.79;32.93;94390.41;4958466;28;102823;-54
2021/12/04 14:16:51;;;;;;;19.27;17.77;;;;;;;23.70;32.23;94393.16;4964081;28;102663;-54
2021/12/04 14:19:25;;;;;;;18.57;16.87;;;;;;;23.60;31.62;94393.53;4974779;28;103022;-54
2021/12/04 14:21:57;;;;;;;17.63;16.07;;;;;;;23.49;31.46;94391.53;4958516;28;102898;-54
2021/12/04 14:24:32;;;;;;;18.50;16.90;;;;;;;23.59;30.77;94393.88;4958162;28;103369;-54